sensor_id;sensor_type;location;lat;lon;timestamp;pressure;altitude;pressure_sealevel;temperature;humidity
43071;BME280;36278;47.952;21.714;2023-02-21T00:02:03;99961.00;;;6.13;99.88
43071;BME280;36278;47.952;21.714;2023-02-21T00:04:47;99958.00;;;6.20;99.27
43071;BME280;36278;47.952;21.714;2023-02-21T00:07:32;99956.75;;;6.25;98.40
43071;BME280;36278;47.952;21.714;2023-02-21T00:10:16;99952.69;;;6.34;98.06
43071;BME280;36278;47.952;21.714;2023-02-21T00:13:00;99956.81;;;6.38;97.88
43071;BME280;36278;47.952;21.714;2023-02-21T00:15:44;99965.25;;;6.43;97.08
43071;BME280;36278;47.952;21.714;2023-02-21T00:18:33;99957.34;;;6.43;97.37
43071;BME280;36278;47.952;21.714;2023-02-21T00:21:17;99961.28;;;6.50;97.34
43071;BME280;36278;47.952;21.714;2023-02-21T00:24:01;99956.84;;;6.51;96.98
43071;BME280;36278;47.952;21.714;2023-02-21T00:26:45;99943.69;;;6.51;96.70
43071;BME280;36278;47.952;21.714;2023-02-21T00:29:28;99947.38;;;6.48;97.03
43071;BME280;36278;47.952;21.714;2023-02-21T00:32:12;99952.66;;;6.48;97.15
43071;BME280;36278;47.952;21.714;2023-02-21T00:34:56;99959.56;;;6.36;97.83
43071;BME280;36278;47.952;21.714;2023-02-21T00:37:40;99963.97;;;6.36;97.27
43071;BME280;36278;47.952;21.714;2023-02-21T00:40:24;99957.41;;;6.29;97.95
43071;BME280;36278;47.952;21.714;2023-02-21T00:43:08;99950.53;;;6.26;97.89
43071;BME280;36278;47.952;21.714;2023-02-21T00:45:52;99943.34;;;6.15;97.78
43071;BME280;36278;47.952;21.714;2023-02-21T00:48:36;99940.25;;;6.09;98.54
43071;BME280;36278;47.952;21.714;2023-02-21T00:51:20;99945.41;;;6.10;98.47
43071;BME280;36278;47.952;21.714;2023-02-21T00:54:04;99943.72;;;6.09;98.15
43071;BME280;36278;47.952;21.714;2023-02-21T00:56:48;99931.25;;;6.13;98.52
43071;BME280;36278;47.952;21.714;2023-02-21T00:59:32;99933.75;;;6.14;98.15
43071;BME280;36278;47.952;21.714;2023-02-21T01:02:16;99923.88;;;6.18;97.18
43071;BME280;36278;47.952;21.714;2023-02-21T01:05:00;99919.88;;;6.12;96.92
43071;BME280;36278;47.952;21.714;2023-02-21T01:07:44;99910.84;;;6.16;97.14
43071;BME280;36278;47.952;21.714;2023-02-21T01:10:28;99904.00;;;6.14;96.59
43071;BME280;36278;47.952;21.714;2023-02-21T01:13:11;99917.78;;;6.17;97.06
43071;BME280;36278;47.952;21.714;2023-02-21T01:15:55;99901.28;;;6.01;96.39
43071;BME280;36278;47.952;21.714;2023-02-21T01:18:39;99927.94;;;6.09;96.92
43071;BME280;36278;47.952;21.714;2023-02-21T01:21:23;99915.63;;;6.10;96.92
43071;BME280;36278;47.952;21.714;2023-02-21T01:24:11;99923.00;;;6.05;96.88
43071;BME280;36278;47.952;21.714;2023-02-21T01:26:55;99918.75;;;6.02;97.43
43071;BME280;36278;47.952;21.714;2023-02-21T01:29:39;99912.94;;;5.97;97.24
43071;BME280;36278;47.952;21.714;2023-02-21T01:32:22;99912.22;;;5.95;97.55
43071;BME280;36278;47.952;21.714;2023-02-21T01:35:07;99907.88;;;5.94;97.54
43071;BME280;36278;47.952;21.714;2023-02-21T01:37:51;99903.66;;;5.92;96.44
43071;BME280;36278;47.952;21.714;2023-02-21T01:40:38;99914.34;;;5.88;97.10
43071;BME280;36278;47.952;21.714;2023-02-21T01:43:25;99904.41;;;5.94;96.65
43071;BME280;36278;47.952;21.714;2023-02-21T01:46:14;99903.72;;;5.90;96.42
43071;BME280;36278;47.952;21.714;2023-02-21T01:49:02;99903.94;;;5.87;96.74
43071;BME280;36278;47.952;21.714;2023-02-21T01:51:47;99905.91;;;5.83;96.31
43071;BME280;36278;47.952;21.714;2023-02-21T01:54:35;99902.03;;;5.89;96.14
43071;BME280;36278;47.952;21.714;2023-02-21T01:57:21;99899.97;;;5.94;95.47
43071;BME280;36278;47.952;21.714;2023-02-21T02:00:08;99894.16;;;6.03;94.31
43071;BME280;36278;47.952;21.714;2023-02-21T02:02:59;99898.66;;;6.01;94.35
43071;BME280;36278;47.952;21.714;2023-02-21T02:05:49;99901.13;;;6.04;94.37
43071;BME280;36278;47.952;21.714;2023-02-21T02:08:35;99887.75;;;6.07;93.24
43071;BME280;36278;47.952;21.714;2023-02-21T02:14:10;99885.34;;;6.04;93.36
43071;BME280;36278;47.952;21.714;2023-02-21T02:16:45;99880.47;;;5.98;93.16
43071;BME280;36278;47.952;21.714;2023-02-21T02:33:40;99863.84;;;5.98;92.14
43071;BME280;36278;47.952;21.714;2023-02-21T02:38:45;99858.47;;;5.99;92.11
43071;BME280;36278;47.952;21.714;2023-02-21T02:41:32;99855.66;;;6.02;91.31
43071;BME280;36278;47.952;21.714;2023-02-21T02:44:11;99855.75;;;6.01;91.47
43071;BME280;36278;47.952;21.714;2023-02-21T02:46:40;99847.59;;;6.05;91.38
43071;BME280;36278;47.952;21.714;2023-02-21T02:49:13;99830.66;;;6.09;90.74
43071;BME280;36278;47.952;21.714;2023-02-21T02:51:40;99826.22;;;6.10;90.62
43071;BME280;36278;47.952;21.714;2023-02-21T02:54:06;99825.31;;;6.11;90.55
43071;BME280;36278;47.952;21.714;2023-02-21T02:56:31;99817.31;;;6.12;90.45
43071;BME280;36278;47.952;21.714;2023-02-21T02:59:05;99814.69;;;6.12;90.61
43071;BME280;36278;47.952;21.714;2023-02-21T03:09:57;99804.91;;;6.14;90.02
43071;BME280;36278;47.952;21.714;2023-02-21T03:15:36;99804.69;;;6.17;89.52
43071;BME280;36278;47.952;21.714;2023-02-21T03:20:56;99811.84;;;6.15;89.38
43071;BME280;36278;47.952;21.714;2023-02-21T03:23:26;99807.53;;;6.14;89.37
43071;BME280;36278;47.952;21.714;2023-02-21T03:25:55;99818.16;;;6.13;89.75
43071;BME280;36278;47.952;21.714;2023-02-21T03:28:23;99832.88;;;6.15;89.27
43071;BME280;36278;47.952;21.714;2023-02-21T03:30:52;99841.00;;;6.12;89.84
43071;BME280;36278;47.952;21.714;2023-02-21T03:33:19;99841.09;;;6.11;89.73
43071;BME280;36278;47.952;21.714;2023-02-21T03:35:44;99840.16;;;6.12;89.40
43071;BME280;36278;47.952;21.714;2023-02-21T03:38:10;99837.59;;;6.10;89.43
43071;BME280;36278;47.952;21.714;2023-02-21T03:40:36;99843.50;;;6.14;89.11
43071;BME280;36278;47.952;21.714;2023-02-21T03:43:04;99838.34;;;6.12;89.57
43071;BME280;36278;47.952;21.714;2023-02-21T03:45:31;99841.50;;;6.17;88.72
43071;BME280;36278;47.952;21.714;2023-02-21T03:47:57;99829.13;;;6.20;88.23
43071;BME280;36278;47.952;21.714;2023-02-21T03:50:22;99833.34;;;6.22;88.01
43071;BME280;36278;47.952;21.714;2023-02-21T03:52:48;99829.75;;;6.23;88.26
43071;BME280;36278;47.952;21.714;2023-02-21T03:55:13;99833.69;;;6.43;86.51
43071;BME280;36278;47.952;21.714;2023-02-21T03:57:39;99822.66;;;6.51;85.39
43071;BME280;36278;47.952;21.714;2023-02-21T04:00:05;99833.75;;;6.68;84.49
43071;BME280;36278;47.952;21.714;2023-02-21T04:02:30;99828.72;;;6.78;84.10
43071;BME280;36278;47.952;21.714;2023-02-21T04:04:56;99838.09;;;6.82;83.72
43071;BME280;36278;47.952;21.714;2023-02-21T04:07:21;99830.28;;;6.81;83.91
43071;BME280;36278;47.952;21.714;2023-02-21T04:09:47;99832.38;;;6.75;84.03
43071;BME280;36278;47.952;21.714;2023-02-21T04:12:13;99826.81;;;6.80;83.18
43071;BME280;36278;47.952;21.714;2023-02-21T04:14:39;99827.75;;;6.79;83.40
43071;BME280;36278;47.952;21.714;2023-02-21T04:17:04;99827.66;;;6.81;83.53
43071;BME280;36278;47.952;21.714;2023-02-21T04:19:30;99824.91;;;6.82;83.36
43071;BME280;36278;47.952;21.714;2023-02-21T04:21:55;99817.53;;;6.74;83.37
43071;BME280;36278;47.952;21.714;2023-02-21T04:24:21;99817.84;;;6.83;82.66
43071;BME280;36278;47.952;21.714;2023-02-21T04:26:47;99815.56;;;6.78;83.07
43071;BME280;36278;47.952;21.714;2023-02-21T04:29:12;99821.78;;;6.77;82.79
43071;BME280;36278;47.952;21.714;2023-02-21T04:31:38;99821.34;;;6.83;82.76
43071;BME280;36278;47.952;21.714;2023-02-21T04:34:04;99817.47;;;6.76;82.95
43071;BME280;36278;47.952;21.714;2023-02-21T04:36:29;99823.84;;;6.72;83.44
43071;BME280;36278;47.952;21.714;2023-02-21T04:38:55;99820.06;;;6.63;84.06
43071;BME280;36278;47.952;21.714;2023-02-21T04:41:21;99818.16;;;6.53;84.99
43071;BME280;36278;47.952;21.714;2023-02-21T04:43:47;99800.44;;;6.42;85.72
43071;BME280;36278;47.952;21.714;2023-02-21T04:46:14;99809.78;;;6.33;86.19
43071;BME280;36278;47.952;21.714;2023-02-21T04:48:44;99805.25;;;6.23;86.47
43071;BME280;36278;47.952;21.714;2023-02-21T04:51:11;99813.34;;;6.20;86.95
43071;BME280;36278;47.952;21.714;2023-02-21T04:53:36;99808.28;;;6.16;87.43
43071;BME280;36278;47.952;21.714;2023-02-21T04:56:02;99809.22;;;6.15;87.26
43071;BME280;36278;47.952;21.714;2023-02-21T04:58:28;99817.22;;;6.14;87.20
43071;BME280;36278;47.952;21.714;2023-02-21T05:00:53;99822.38;;;6.15;87.10
43071;BME280;36278;47.952;21.714;2023-02-21T05:03:19;99813.09;;;6.10;87.41
43071;BME280;36278;47.952;21.714;2023-02-21T05:05:44;99815.44;;;6.14;86.92
43071;BME280;36278;47.952;21.714;2023-02-21T05:08:09;99817.09;;;6.15;87.04
43071;BME280;36278;47.952;21.714;2023-02-21T05:10:35;99816.16;;;6.43;85.33
43071;BME280;36278;47.952;21.714;2023-02-21T05:13:00;99811.84;;;6.55;84.61
43071;BME280;36278;47.952;21.714;2023-02-21T05:15:26;99816.59;;;6.63;84.21
43071;BME280;36278;47.952;21.714;2023-02-21T05:17:51;99806.28;;;6.60;83.77
43071;BME280;36278;47.952;21.714;2023-02-21T05:20:17;99812.06;;;6.65;84.19
43071;BME280;36278;47.952;21.714;2023-02-21T05:22:42;99817.53;;;6.62;83.69
43071;BME280;36278;47.952;21.714;2023-02-21T05:25:19;99824.25;;;6.53;84.59
43071;BME280;36278;47.952;21.714;2023-02-21T05:27:45;99813.41;;;6.45;84.71
43071;BME280;36278;47.952;21.714;2023-02-21T05:30:14;99817.16;;;6.41;85.01
43071;BME280;36278;47.952;21.714;2023-02-21T05:32:40;99826.84;;;6.40;85.50
43071;BME280;36278;47.952;21.714;2023-02-21T05:35:06;99824.44;;;6.37;85.33
43071;BME280;36278;47.952;21.714;2023-02-21T05:37:32;99820.75;;;6.40;85.35
43071;BME280;36278;47.952;21.714;2023-02-21T05:39:57;99799.59;;;6.29;86.18
43071;BME280;36278;47.952;21.714;2023-02-21T05:42:23;99813.69;;;6.40;85.53
43071;BME280;36278;47.952;21.714;2023-02-21T05:44:48;99810.00;;;6.43;85.03
43071;BME280;36278;47.952;21.714;2023-02-21T05:47:14;99810.97;;;6.42;85.51
43071;BME280;36278;47.952;21.714;2023-02-21T05:49:40;99807.38;;;6.43;85.51
43071;BME280;36278;47.952;21.714;2023-02-21T05:52:07;99812.66;;;6.43;85.81
43071;BME280;36278;47.952;21.714;2023-02-21T05:54:33;99798.97;;;6.38;85.76
43071;BME280;36278;47.952;21.714;2023-02-21T05:56:59;99805.81;;;6.40;86.08
43071;BME280;36278;47.952;21.714;2023-02-21T05:59:24;99805.81;;;6.40;85.48
43071;BME280;36278;47.952;21.714;2023-02-21T06:01:50;99803.84;;;6.44;85.26
43071;BME280;36278;47.952;21.714;2023-02-21T06:04:16;99814.97;;;6.47;85.97
43071;BME280;36278;47.952;21.714;2023-02-21T06:06:41;99817.50;;;6.49;86.16
43071;BME280;36278;47.952;21.714;2023-02-21T06:09:08;99805.50;;;6.45;85.97
43071;BME280;36278;47.952;21.714;2023-02-21T06:11:35;99799.19;;;6.47;85.99
43071;BME280;36278;47.952;21.714;2023-02-21T06:14:04;99798.13;;;6.50;86.04
43071;BME280;36278;47.952;21.714;2023-02-21T06:16:35;99801.31;;;6.55;86.19
43071;BME280;36278;47.952;21.714;2023-02-21T06:19:01;99807.31;;;6.57;85.65
43071;BME280;36278;47.952;21.714;2023-02-21T06:21:27;99807.84;;;6.62;85.47
43071;BME280;36278;47.952;21.714;2023-02-21T06:23:53;99816.47;;;6.64;85.37
43071;BME280;36278;47.952;21.714;2023-02-21T06:26:19;99817.13;;;6.68;85.79
43071;BME280;36278;47.952;21.714;2023-02-21T06:28:45;99822.81;;;6.74;84.93
43071;BME280;36278;47.952;21.714;2023-02-21T06:31:11;99835.34;;;6.84;84.65
43071;BME280;36278;47.952;21.714;2023-02-21T06:33:37;99830.72;;;6.87;84.92
43071;BME280;36278;47.952;21.714;2023-02-21T06:36:07;99833.34;;;6.87;84.86
43071;BME280;36278;47.952;21.714;2023-02-21T06:38:34;99835.34;;;6.96;84.79
43071;BME280;36278;47.952;21.714;2023-02-21T06:41:04;99840.22;;;7.02;84.58
43071;BME280;36278;47.952;21.714;2023-02-21T06:43:29;99841.78;;;7.05;84.05
43071;BME280;36278;47.952;21.714;2023-02-21T06:45:55;99843.28;;;7.09;84.13
43071;BME280;36278;47.952;21.714;2023-02-21T06:48:20;99846.81;;;7.08;84.05
43071;BME280;36278;47.952;21.714;2023-02-21T06:50:46;99848.94;;;7.16;83.79
43071;BME280;36278;47.952;21.714;2023-02-21T06:53:11;99841.47;;;7.22;83.86
43071;BME280;36278;47.952;21.714;2023-02-21T06:55:36;99843.56;;;7.30;83.44
43071;BME280;36278;47.952;21.714;2023-02-21T06:58:02;99836.06;;;7.37;83.07
43071;BME280;36278;47.952;21.714;2023-02-21T07:00:27;99840.94;;;7.43;82.86
43071;BME280;36278;47.952;21.714;2023-02-21T07:02:53;99830.03;;;7.47;82.84
43071;BME280;36278;47.952;21.714;2023-02-21T07:05:18;99829.63;;;7.53;82.64
43071;BME280;36278;47.952;21.714;2023-02-21T07:07:44;99833.16;;;7.65;82.15
43071;BME280;36278;47.952;21.714;2023-02-21T07:10:10;99837.28;;;7.69;81.81
43071;BME280;36278;47.952;21.714;2023-02-21T07:12:38;99834.22;;;7.75;81.64
43071;BME280;36278;47.952;21.714;2023-02-21T07:15:04;99840.78;;;7.94;81.34
43071;BME280;36278;47.952;21.714;2023-02-21T07:17:30;99834.41;;;8.09;80.73
43071;BME280;36278;47.952;21.714;2023-02-21T07:19:55;99825.94;;;8.17;80.70
43071;BME280;36278;47.952;21.714;2023-02-21T07:22:22;99825.25;;;8.26;79.86
43071;BME280;36278;47.952;21.714;2023-02-21T07:24:52;99825.44;;;8.35;79.55
43071;BME280;36278;47.952;21.714;2023-02-21T07:27:18;99820.31;;;8.45;79.24
43071;BME280;36278;47.952;21.714;2023-02-21T07:29:46;99814.19;;;8.45;79.48
43071;BME280;36278;47.952;21.714;2023-02-21T07:32:12;99811.69;;;8.54;79.10
43071;BME280;36278;47.952;21.714;2023-02-21T07:34:38;99815.09;;;8.67;78.70
43071;BME280;36278;47.952;21.714;2023-02-21T07:37:03;99798.41;;;8.67;78.68
43071;BME280;36278;47.952;21.714;2023-02-21T07:39:29;99802.41;;;8.95;77.91
43071;BME280;36278;47.952;21.714;2023-02-21T07:41:54;99808.31;;;8.98;78.01
43071;BME280;36278;47.952;21.714;2023-02-21T07:44:20;99802.81;;;9.13;77.19
43071;BME280;36278;47.952;21.714;2023-02-21T07:46:46;99830.19;;;9.23;76.71
43071;BME280;36278;47.952;21.714;2023-02-21T07:49:12;99821.06;;;9.27;76.67
43071;BME280;36278;47.952;21.714;2023-02-21T07:51:38;99813.84;;;9.40;76.32
43071;BME280;36278;47.952;21.714;2023-02-21T07:54:04;99815.50;;;9.52;75.65
43071;BME280;36278;47.952;21.714;2023-02-21T07:56:31;99819.81;;;9.76;74.40
43071;BME280;36278;47.952;21.714;2023-02-21T07:58:59;99823.53;;;9.84;74.36
43071;BME280;36278;47.952;21.714;2023-02-21T08:01:26;99823.66;;;9.94;73.50
43071;BME280;36278;47.952;21.714;2023-02-21T08:03:54;99832.03;;;9.99;73.61
43071;BME280;36278;47.952;21.714;2023-02-21T08:06:21;99823.56;;;10.17;73.26
43071;BME280;36278;47.952;21.714;2023-02-21T08:08:48;99822.97;;;10.13;73.62
43071;BME280;36278;47.952;21.714;2023-02-21T08:11:15;99809.88;;;10.11;73.14
43071;BME280;36278;47.952;21.714;2023-02-21T08:13:43;99827.63;;;10.32;72.59
43071;BME280;36278;47.952;21.714;2023-02-21T08:16:09;99827.16;;;10.59;71.76
43071;BME280;36278;47.952;21.714;2023-02-21T08:18:36;99824.81;;;10.65;72.25
43071;BME280;36278;47.952;21.714;2023-02-21T08:21:02;99832.19;;;10.62;71.94
43071;BME280;36278;47.952;21.714;2023-02-21T08:23:29;99834.22;;;10.70;72.11
43071;BME280;36278;47.952;21.714;2023-02-21T08:25:55;99823.78;;;10.99;70.42
43071;BME280;36278;47.952;21.714;2023-02-21T08:28:22;99825.84;;;11.16;69.36
43071;BME280;36278;47.952;21.714;2023-02-21T08:30:49;99836.75;;;11.22;69.14
43071;BME280;36278;47.952;21.714;2023-02-21T08:33:14;99823.50;;;11.22;69.18
43071;BME280;36278;47.952;21.714;2023-02-21T08:35:40;99836.13;;;11.40;69.11
43071;BME280;36278;47.952;21.714;2023-02-21T08:38:05;99829.97;;;11.39;68.89
43071;BME280;36278;47.952;21.714;2023-02-21T08:40:32;99830.31;;;11.56;68.22
43071;BME280;36278;47.952;21.714;2023-02-21T08:42:59;99840.31;;;11.73;68.12
43071;BME280;36278;47.952;21.714;2023-02-21T08:45:27;99855.22;;;11.64;68.33
43071;BME280;36278;47.952;21.714;2023-02-21T08:47:53;99833.75;;;11.77;67.40
43071;BME280;36278;47.952;21.714;2023-02-21T08:50:21;99832.06;;;11.66;67.00
43071;BME280;36278;47.952;21.714;2023-02-21T08:52:48;99849.38;;;11.70;67.30
43071;BME280;36278;47.952;21.714;2023-02-21T08:55:14;99844.44;;;11.96;66.36
43071;BME280;36278;47.952;21.714;2023-02-21T08:57:40;99855.81;;;11.77;66.65
43071;BME280;36278;47.952;21.714;2023-02-21T09:00:06;99851.22;;;11.79;67.36
43071;BME280;36278;47.952;21.714;2023-02-21T09:02:36;99854.38;;;11.94;65.56
43071;BME280;36278;47.952;21.714;2023-02-21T09:05:26;99845.72;;;12.02;65.65
43071;BME280;36278;47.952;21.714;2023-02-21T09:07:53;99826.84;;;11.95;65.70
43071;BME280;36278;47.952;21.714;2023-02-21T09:10:23;99842.06;;;11.93;66.02
43071;BME280;36278;47.952;21.714;2023-02-21T09:12:49;99844.34;;;12.27;65.43
43071;BME280;36278;47.952;21.714;2023-02-21T09:15:15;99846.63;;;12.31;64.62
43071;BME280;36278;47.952;21.714;2023-02-21T09:17:41;99860.88;;;12.50;64.04
43071;BME280;36278;47.952;21.714;2023-02-21T09:20:08;99865.50;;;12.57;63.71
43071;BME280;36278;47.952;21.714;2023-02-21T09:22:34;99857.78;;;12.74;63.59
43071;BME280;36278;47.952;21.714;2023-02-21T09:25:01;99866.06;;;12.71;63.32
43071;BME280;36278;47.952;21.714;2023-02-21T09:27:27;99874.44;;;12.76;63.16
43071;BME280;36278;47.952;21.714;2023-02-21T09:30:06;99875.13;;;12.97;63.08
43071;BME280;36278;47.952;21.714;2023-02-21T09:32:32;99864.13;;;13.39;62.00
43071;BME280;36278;47.952;21.714;2023-02-21T09:34:58;99870.69;;;13.82;60.63
43071;BME280;36278;47.952;21.714;2023-02-21T09:37:24;99868.88;;;14.00;60.08
43071;BME280;36278;47.952;21.714;2023-02-21T09:39:50;99874.63;;;13.40;61.64
43071;BME280;36278;47.952;21.714;2023-02-21T09:42:17;99890.66;;;13.58;61.53
43071;BME280;36278;47.952;21.714;2023-02-21T09:44:44;99884.75;;;13.64;60.92
43071;BME280;36278;47.952;21.714;2023-02-21T09:47:16;99879.41;;;13.37;61.94
43071;BME280;36278;47.952;21.714;2023-02-21T09:49:47;99889.97;;;13.56;61.71
43071;BME280;36278;47.952;21.714;2023-02-21T09:52:26;99896.34;;;13.26;62.39
43071;BME280;36278;47.952;21.714;2023-02-21T09:54:57;99886.72;;;13.06;62.92
43071;BME280;36278;47.952;21.714;2023-02-21T09:57:24;99878.34;;;12.91;63.52
43071;BME280;36278;47.952;21.714;2023-02-21T09:59:49;99872.16;;;13.10;63.67
43071;BME280;36278;47.952;21.714;2023-02-21T10:08:08;99859.28;;;13.89;61.07
43071;BME280;36278;47.952;21.714;2023-02-21T10:10:44;99853.31;;;14.23;59.89
43071;BME280;36278;47.952;21.714;2023-02-21T10:13:40;99844.81;;;14.37;60.38
43071;BME280;36278;47.952;21.714;2023-02-21T10:19:13;99847.81;;;14.70;58.33
43071;BME280;36278;47.952;21.714;2023-02-21T10:21:44;99842.59;;;14.32;57.23
43071;BME280;36278;47.952;21.714;2023-02-21T10:24:23;99846.06;;;14.61;57.74
43071;BME280;36278;47.952;21.714;2023-02-21T10:29:38;99813.53;;;15.01;56.63
43071;BME280;36278;47.952;21.714;2023-02-21T10:32:05;99820.06;;;14.80;55.65
43071;BME280;36278;47.952;21.714;2023-02-21T10:34:32;99823.66;;;14.71;55.60
43071;BME280;36278;47.952;21.714;2023-02-21T10:37:36;99837.97;;;14.70;55.50
43071;BME280;36278;47.952;21.714;2023-02-21T10:43:16;99811.66;;;14.93;55.74
43071;BME280;36278;47.952;21.714;2023-02-21T10:45:52;99815.53;;;15.25;54.73
43071;BME280;36278;47.952;21.714;2023-02-21T10:48:25;99817.91;;;15.36;54.76
43071;BME280;36278;47.952;21.714;2023-02-21T10:51:10;99819.56;;;15.37;53.98
43071;BME280;36278;47.952;21.714;2023-02-21T10:53:39;99832.16;;;15.19;54.33
43071;BME280;36278;47.952;21.714;2023-02-21T10:56:14;99814.94;;;15.13;54.91
43071;BME280;36278;47.952;21.714;2023-02-21T10:58:54;99821.03;;;15.23;54.45
43071;BME280;36278;47.952;21.714;2023-02-21T11:01:22;99814.63;;;15.42;54.79
43071;BME280;36278;47.952;21.714;2023-02-21T11:06:34;99806.44;;;15.78;53.89
43071;BME280;36278;47.952;21.714;2023-02-21T11:09:03;99805.09;;;15.74;53.83
43071;BME280;36278;47.952;21.714;2023-02-21T11:11:47;99804.47;;;15.54;53.34
43071;BME280;36278;47.952;21.714;2023-02-21T11:16:41;99809.41;;;15.66;53.01
43071;BME280;36278;47.952;21.714;2023-02-21T11:19:09;99799.91;;;15.64;53.18
43071;BME280;36278;47.952;21.714;2023-02-21T11:21:36;99793.94;;;15.86;53.03
43071;BME280;36278;47.952;21.714;2023-02-21T11:24:04;99794.69;;;16.21;52.25
43071;BME280;36278;47.952;21.714;2023-02-21T11:26:45;99799.03;;;16.14;51.23
43071;BME280;36278;47.952;21.714;2023-02-21T11:29:20;99804.53;;;16.29;51.06
43071;BME280;36278;47.952;21.714;2023-02-21T11:31:49;99802.56;;;16.47;50.76
43071;BME280;36278;47.952;21.714;2023-02-21T11:34:17;99804.38;;;16.22;51.05
43071;BME280;36278;47.952;21.714;2023-02-21T11:36:47;99799.19;;;16.29;51.46
43071;BME280;36278;47.952;21.714;2023-02-21T11:39:24;99802.88;;;16.27;51.45
43071;BME280;36278;47.952;21.714;2023-02-21T11:41:58;99819.38;;;16.07;51.70
43071;BME280;36278;47.952;21.714;2023-02-21T11:44:29;99808.22;;;16.19;51.93
43071;BME280;36278;47.952;21.714;2023-02-21T11:47:35;99809.88;;;16.29;51.62
43071;BME280;36278;47.952;21.714;2023-02-21T11:50:28;99816.81;;;16.72;50.58
43071;BME280;36278;47.952;21.714;2023-02-21T11:53:06;99799.69;;;17.14;49.70
43071;BME280;36278;47.952;21.714;2023-02-21T11:55:37;99805.44;;;16.94;50.08
43071;BME280;36278;47.952;21.714;2023-02-21T12:01:03;99802.16;;;17.31;49.07
43071;BME280;36278;47.952;21.714;2023-02-21T12:06:17;99790.38;;;17.49;48.71
43071;BME280;36278;47.952;21.714;2023-02-21T12:09:22;99798.00;;;17.21;49.21
43071;BME280;36278;47.952;21.714;2023-02-21T12:15:23;99804.72;;;17.64;48.53
43071;BME280;36278;47.952;21.714;2023-02-21T12:18:00;99802.75;;;17.02;48.96
43071;BME280;36278;47.952;21.714;2023-02-21T12:26:30;99802.81;;;17.25;48.68
43071;BME280;36278;47.952;21.714;2023-02-21T12:38:10;99797.88;;;16.41;51.21
43071;BME280;36278;47.952;21.714;2023-02-21T12:49:07;99780.00;;;16.33;52.08
43071;BME280;36278;47.952;21.714;2023-02-21T12:51:42;99780.81;;;16.17;52.36
43071;BME280;36278;47.952;21.714;2023-02-21T12:54:18;99780.06;;;17.29;49.85
43071;BME280;36278;47.952;21.714;2023-02-21T12:56:56;99776.84;;;17.81;49.08
43071;BME280;36278;47.952;21.714;2023-02-21T13:02:39;99765.34;;;18.04;48.24
43071;BME280;36278;47.952;21.714;2023-02-21T13:05:18;99753.88;;;18.93;46.33
43071;BME280;36278;47.952;21.714;2023-02-21T13:11:30;99761.59;;;18.13;47.20
43071;BME280;36278;47.952;21.714;2023-02-21T13:13:57;99756.66;;;18.02;47.21
43071;BME280;36278;47.952;21.714;2023-02-21T13:16:24;99757.09;;;18.74;46.40
43071;BME280;36278;47.952;21.714;2023-02-21T13:18:54;99759.31;;;18.70;46.12
43071;BME280;36278;47.952;21.714;2023-02-21T13:24:22;99758.16;;;19.02;44.55
43071;BME280;36278;47.952;21.714;2023-02-21T13:29:32;99759.63;;;19.49;43.24
43071;BME280;36278;47.952;21.714;2023-02-21T13:32:01;99760.16;;;19.45;43.33
43071;BME280;36278;47.952;21.714;2023-02-21T13:34:30;99768.28;;;20.38;41.40
43071;BME280;36278;47.952;21.714;2023-02-21T13:37:01;99773.22;;;20.78;40.55
43071;BME280;36278;47.952;21.714;2023-02-21T13:39:29;99778.81;;;20.83;40.18
43071;BME280;36278;47.952;21.714;2023-02-21T13:42:21;99774.19;;;20.70;40.60
43071;BME280;36278;47.952;21.714;2023-02-21T13:44:52;99771.03;;;20.24;41.91
43071;BME280;36278;47.952;21.714;2023-02-21T13:47:20;99777.59;;;20.00;42.12
43071;BME280;36278;47.952;21.714;2023-02-21T13:49:49;99779.16;;;19.73;42.83
43071;BME280;36278;47.952;21.714;2023-02-21T13:57:36;99769.34;;;18.91;43.63
43071;BME280;36278;47.952;21.714;2023-02-21T14:16:21;99759.88;;;18.20;44.92
43071;BME280;36278;47.952;21.714;2023-02-21T14:18:51;99793.03;;;17.96;45.55
43071;BME280;36278;47.952;21.714;2023-02-21T14:26:42;99793.16;;;17.08;47.27
43071;BME280;36278;47.952;21.714;2023-02-21T14:31:50;99785.50;;;17.05;47.86
43071;BME280;36278;47.952;21.714;2023-02-21T14:35:02;99792.03;;;17.02;47.44
43071;BME280;36278;47.952;21.714;2023-02-21T14:39:55;99790.53;;;16.67;48.82
43071;BME280;36278;47.952;21.714;2023-02-21T15:04:01;99792.38;;;16.42;49.41
43071;BME280;36278;47.952;21.714;2023-02-21T15:06:28;99793.94;;;17.80;46.75
43071;BME280;36278;47.952;21.714;2023-02-21T15:08:55;99798.53;;;19.09;44.21
43071;BME280;36278;47.952;21.714;2023-02-21T15:11:30;99804.81;;;18.41;45.27
43071;BME280;36278;47.952;21.714;2023-02-21T15:14:19;99805.97;;;18.84;44.55
43071;BME280;36278;47.952;21.714;2023-02-21T15:19:27;99821.84;;;17.94;46.23
43071;BME280;36278;47.952;21.714;2023-02-21T15:24:37;99816.00;;;18.90;45.17
43071;BME280;36278;47.952;21.714;2023-02-21T15:27:13;99803.22;;;19.22;44.02
43071;BME280;36278;47.952;21.714;2023-02-21T15:29:44;99823.09;;;18.37;45.37
43071;BME280;36278;47.952;21.714;2023-02-21T15:32:13;99811.78;;;17.49;47.56
43071;BME280;36278;47.952;21.714;2023-02-21T15:34:42;99814.94;;;16.56;49.04
43071;BME280;36278;47.952;21.714;2023-02-21T15:37:26;99822.22;;;15.63;51.20
43071;BME280;36278;47.952;21.714;2023-02-21T15:39:57;99829.31;;;15.46;51.83
43071;BME280;36278;47.952;21.714;2023-02-21T15:42:24;99830.59;;;15.08;52.74
43071;BME280;36278;47.952;21.714;2023-02-21T15:45:03;99827.34;;;14.96;53.28
43071;BME280;36278;47.952;21.714;2023-02-21T15:47:32;99838.31;;;14.93;53.34
43071;BME280;36278;47.952;21.714;2023-02-21T15:52:41;99846.00;;;14.52;54.30
43071;BME280;36278;47.952;21.714;2023-02-21T15:57:45;99859.34;;;14.25;55.73
43071;BME280;36278;47.952;21.714;2023-02-21T16:02:44;99862.06;;;14.15;56.09
43071;BME280;36278;47.952;21.714;2023-02-21T16:05:29;99862.88;;;13.98;56.63